createdAt,value
2019-05-02T00:01:09.710Z,52.00
2019-05-02T00:02:09.947Z,56.80
2019-05-02T00:04:19.980Z,55.80
2019-05-02T00:05:14.335Z,56.40
2019-05-02T00:07:20.119Z,55.80
2019-05-02T00:08:19.240Z,55.60
2019-05-02T00:10:24.861Z,56.70
2019-05-02T00:11:23.643Z,57.70
2019-05-02T00:13:27.833Z,56.40
2019-05-02T00:14:28.064Z,55.10
2019-05-02T00:16:32.238Z,56.30
2019-05-02T00:17:32.474Z,56.30
2019-05-02T00:19:36.627Z,55.80
2019-05-02T00:20:36.864Z,56.40
2019-05-02T00:22:41.534Z,60.10
2019-05-02T00:23:41.768Z,59.30
2019-05-02T00:25:47.266Z,59.30
2019-05-02T00:26:46.156Z,59.00
2019-05-02T00:28:50.338Z,60.30
2019-05-02T00:29:53.777Z,61.10
2019-05-02T00:31:46.865Z,62.70
2019-05-02T00:32:44.412Z,64.50
2019-05-02T00:34:49.055Z,65.60
2019-05-02T00:35:49.294Z,66.70
2019-05-02T00:37:57.456Z,68.00
2019-05-02T00:38:53.704Z,74.50
2019-05-02T00:41:02.215Z,71.80
2019-05-02T00:41:58.101Z,72.30
2019-05-02T00:44:05.983Z,71.00
2019-05-02T00:45:02.519Z,71.30
2019-05-02T00:47:10.866Z,72.30
2019-05-02T00:48:06.938Z,73.70
2019-05-02T00:50:12.672Z,76.60
2019-05-02T00:51:11.821Z,71.90
2019-05-02T00:53:16.486Z,74.90
2019-05-02T00:54:19.128Z,74.60
2019-05-02T00:56:20.886Z,73.70
2019-05-02T00:57:21.784Z,72.00
2019-05-02T00:59:25.298Z,72.90
2019-05-02T01:00:25.540Z,69.60
2019-05-02T01:02:29.714Z,74.80
2019-05-02T01:03:31.992Z,76.20
2019-05-02T01:05:38.375Z,76.20
2019-05-02T01:06:34.832Z,78.60
2019-05-02T01:08:39.501Z,73.70
2019-05-02T01:09:42.231Z,77.60
2019-05-02T01:11:33.324Z,77.30
2019-05-02T01:12:33.547Z,78.40
2019-05-02T01:14:37.717Z,77.90
2019-05-02T01:15:38.960Z,80.40
2019-05-02T01:17:42.150Z,78.60
2019-05-02T01:18:42.582Z,79.60
2019-05-02T01:20:46.516Z,80.90
2019-05-02T01:21:46.751Z,81.20
2019-05-02T01:23:51.420Z,81.30
2019-05-02T01:24:51.655Z,79.40
2019-05-02T01:26:59.855Z,84.30
2019-05-02T01:27:56.538Z,83.10
2019-05-02T01:30:01.645Z,77.10
2019-05-02T01:31:00.955Z,73.10
2019-05-02T01:33:06.601Z,70.60
2019-05-02T01:34:05.372Z,64.30
2019-05-02T01:36:10.013Z,59.60
2019-05-02T01:37:12.413Z,59.50
2019-05-02T01:39:14.425Z,75.70
2019-05-02T01:40:17.741Z,79.50
2019-05-02T01:42:07.751Z,75.60
2019-05-02T01:43:07.988Z,75.90
2019-05-02T01:45:12.605Z,59.60
2019-05-02T01:46:12.398Z,62.10
2019-05-02T01:48:17.069Z,77.60
2019-05-02T01:49:21.720Z,87.50
2019-05-02T01:51:21.955Z,83.40
2019-05-02T01:52:23.786Z,94.70
2019-05-02T01:54:26.364Z,95.50
2019-05-02T01:55:26.600Z,91.30
2019-05-02T01:57:31.243Z,87.80
2019-05-02T01:58:31.472Z,87.80
2019-05-02T02:00:36.139Z,91.20
2019-05-02T02:01:36.377Z,93.20
2019-05-02T02:03:45.625Z,90.60
2019-05-02T02:04:41.294Z,88.40
2019-05-02T02:06:45.445Z,89.00
2019-05-02T02:07:45.681Z,85.70
2019-05-02T02:09:50.352Z,87.70
2019-05-02T02:10:56.636Z,87.60
2019-05-02T02:13:03.324Z,86.90
2019-05-02T02:13:54.976Z,87.00
2019-05-02T02:16:00.265Z,88.60
2019-05-02T02:16:59.385Z,91.90
2019-05-02T02:19:05.351Z,96.00
2019-05-02T02:20:04.288Z,95.00
2019-05-02T02:22:02.836Z,98.90
2019-05-02T02:22:58.093Z,97.20
2019-05-02T02:25:02.982Z,96.20
2019-05-02T02:26:06.791Z,94.00
2019-05-02T02:28:07.643Z,102.80
2019-05-02T02:29:09.330Z,98.50
2019-05-02T02:31:12.558Z,98.00
2019-05-02T02:32:12.794Z,100.70
2019-05-02T02:34:21.585Z,93.80
2019-05-02T02:35:17.217Z,92.10
2019-05-02T02:37:21.866Z,54.60
2019-05-02T02:38:26.822Z,69.10
2019-05-02T02:40:32.862Z,58.60
2019-05-02T02:41:26.519Z,66.10
2019-05-02T02:43:34.538Z,81.30
2019-05-02T02:44:33.612Z,84.40
2019-05-02T02:46:37.897Z,89.00
2019-05-02T02:47:35.945Z,86.90
2019-05-02T02:49:40.691Z,89.60
2019-05-02T02:50:42.976Z,88.40
2019-05-02T02:52:47.135Z,91.40
2019-05-02T02:53:45.682Z,89.90
2019-05-02T02:56:01.184Z,90.70
2019-05-02T02:56:50.036Z,87.30
2019-05-02T02:58:54.683Z,82.90
2019-05-02T03:00:06.821Z,84.10
2019-05-02T03:01:48.523Z,84.40
2019-05-02T03:02:50.043Z,84.50
2019-05-02T03:04:53.425Z,82.90
2019-05-02T03:05:58.599Z,81.50
2019-05-02T03:07:59.564Z,81.30
2019-05-02T03:08:58.559Z,80.40
2019-05-02T03:11:03.230Z,78.90
2019-05-02T03:12:04.551Z,79.80
2019-05-02T03:14:09.658Z,81.10
2019-05-02T03:15:08.357Z,83.10
2019-05-02T03:17:13.033Z,72.50
2019-05-02T03:18:13.272Z,77.30
2019-05-02T03:20:17.943Z,68.70
2019-05-02T03:21:20.940Z,68.20
2019-05-02T03:23:24.168Z,69.00
2019-05-02T03:24:22.582Z,70.10
2019-05-02T03:26:27.249Z,69.50
2019-05-02T03:27:29.706Z,68.30
2019-05-02T03:29:41.272Z,73.10
2019-05-02T03:30:37.553Z,77.80
2019-05-02T03:32:36.833Z,83.70
2019-05-02T03:33:51.586Z,80.90
2019-05-02T03:35:48.080Z,80.80
2019-05-02T03:36:41.698Z,93.70
2019-05-02T03:38:45.847Z,88.60
2019-05-02T03:39:49.408Z,100.70
2019-05-02T03:41:39.673Z,94.70
2019-05-02T03:42:44.558Z,98.60
2019-05-02T03:44:55.031Z,87.30
2019-05-02T03:45:44.794Z,88.00
2019-05-02T03:47:49.472Z,76.90
2019-05-02T03:48:49.709Z,75.60
2019-05-02T03:50:54.385Z,80.50
2019-05-02T03:51:56.033Z,82.50
2019-05-02T03:54:07.424Z,79.30
2019-05-02T03:54:59.014Z,82.90
2019-05-02T03:57:03.685Z,97.30
2019-05-02T03:58:13.106Z,107.10
2019-05-02T04:00:13.865Z,123.30
2019-05-02T04:01:08.808Z,117.50
2019-05-02T04:03:12.979Z,115.80
2019-05-02T04:04:14.091Z,116.30
2019-05-02T04:06:21.102Z,128.20
2019-05-02T04:07:18.127Z,136.10
2019-05-02T04:09:22.761Z,122.80
2019-05-02T04:10:22.994Z,127.70
2019-05-02T04:12:27.666Z,127.80
2019-05-02T04:13:30.189Z,117.90
2019-05-02T04:15:35.190Z,115.10
2019-05-02T04:16:32.780Z,111.90
2019-05-02T04:18:38.452Z,110.70
2019-05-02T04:19:38.700Z,115.20
2019-05-02T04:21:31.801Z,118.80
2019-05-02T04:22:32.070Z,124.80
2019-05-02T04:24:36.718Z,114.80
2019-05-02T04:25:36.957Z,123.10
2019-05-02T04:27:41.627Z,134.10
2019-05-02T04:28:45.620Z,135.10
2019-05-02T04:30:51.095Z,135.70
2019-05-02T04:31:46.243Z,130.10
2019-05-02T04:33:50.916Z,139.10
2019-05-02T04:34:55.769Z,138.80
2019-05-02T04:37:00.912Z,137.30
2019-05-02T04:37:59.164Z,132.40
2019-05-02T04:40:03.243Z,139.50
2019-05-02T04:41:00.946Z,138.60
2019-05-02T04:43:08.200Z,140.00
2019-05-02T04:44:08.882Z,132.80
2019-05-02T04:46:18.105Z,138.10
2019-05-02T04:47:17.317Z,128.70
2019-05-02T04:49:20.092Z,136.10
2019-05-02T04:50:18.779Z,137.80
2019-05-02T04:52:12.381Z,122.40
2019-05-02T04:53:09.998Z,128.40
2019-05-02T04:55:22.902Z,118.00
2019-05-02T04:56:14.882Z,110.00
2019-05-02T04:58:27.601Z,82.50
2019-05-02T04:59:22.756Z,90.20
2019-05-02T05:01:23.950Z,84.30
2019-05-02T05:02:34.677Z,89.20
2019-05-02T05:04:33.277Z,92.10
2019-05-02T05:05:31.269Z,95.40
2019-05-02T05:07:40.855Z,108.20
2019-05-02T05:08:35.001Z,105.70
2019-05-02T05:10:41.461Z,88.30
2019-05-02T05:11:39.894Z,64.60
2019-05-02T05:13:44.572Z,70.20
2019-05-02T05:14:44.798Z,59.10
2019-05-02T05:16:55.346Z,60.90
2019-05-02T05:17:50.686Z,62.10
2019-05-02T05:19:57.694Z,72.60
2019-05-02T05:20:57.750Z,79.10
2019-05-02T05:23:02.253Z,79.20
2019-05-02T05:24:02.489Z,58.40
2019-05-02T05:26:07.448Z,60.90
2019-05-02T05:27:08.280Z,70.10
2019-05-02T05:29:13.910Z,64.40
2019-05-02T05:30:15.614Z,68.80
2019-05-02T05:32:09.850Z,72.60
2019-05-02T05:33:09.962Z,76.70
2019-05-02T05:35:13.184Z,99.70
2019-05-02T05:36:13.025Z,91.90
2019-05-02T05:38:22.840Z,89.80
2019-05-02T05:39:18.932Z,93.70
2019-05-02T05:41:23.591Z,67.30
2019-05-02T05:42:30.156Z,66.90
2019-05-02T05:44:32.664Z,68.70
2019-05-02T05:45:29.730Z,67.70
2019-05-02T05:47:35.386Z,80.40
2019-05-02T05:48:37.200Z,85.30
2019-05-02T05:50:41.598Z,60.70
2019-05-02T05:51:41.535Z,57.20
2019-05-02T05:53:47.886Z,56.00
2019-05-02T05:54:47.392Z,61.40
2019-05-02T05:56:52.101Z,54.00
2019-05-02T05:57:59.489Z,55.40
2019-05-02T05:59:58.561Z,56.10
2019-05-02T06:00:58.478Z,53.40
2019-05-02T06:03:13.035Z,54.20
2019-05-02T06:04:03.142Z,52.70
2019-05-02T06:06:10.274Z,48.90
2019-05-02T06:07:09.058Z,50.10
2019-05-02T06:09:14.729Z,54.30
2019-05-02T06:10:14.969Z,48.40
2019-05-02T06:12:08.556Z,47.60
2019-05-02T06:13:11.120Z,45.50
2019-05-02T06:15:14.469Z,57.50
2019-05-02T06:16:15.399Z,50.80
2019-05-02T06:18:20.354Z,56.30
2019-05-02T06:19:20.591Z,58.10
2019-05-02T06:21:25.276Z,107.10
2019-05-02T06:22:25.725Z,89.40
2019-05-02T06:24:33.767Z,68.10
2019-05-02T06:25:34.382Z,64.50
2019-05-02T06:27:36.099Z,51.40
2019-05-02T06:28:41.472Z,51.60
2019-05-02T06:30:41.025Z,53.50
2019-05-02T06:31:43.054Z,58.30
2019-05-02T06:33:45.924Z,62.80
2019-05-02T06:34:47.540Z,63.00
2019-05-02T06:36:51.838Z,68.60
2019-05-02T06:37:52.113Z,94.60
2019-05-02T06:39:57.748Z,69.00
2019-05-02T06:40:57.985Z,75.20
2019-05-02T06:43:04.179Z,78.90
2019-05-02T06:44:02.885Z,73.00
2019-05-02T06:46:16.010Z,81.20
2019-05-02T06:47:07.804Z,70.40
2019-05-02T06:49:12.468Z,73.20
2019-05-02T06:50:12.710Z,75.10
2019-05-02T06:52:06.339Z,118.80
2019-05-02T06:53:09.634Z,89.80
2019-05-02T06:55:11.239Z,109.50
2019-05-02T06:56:12.687Z,77.30
2019-05-02T06:58:16.135Z,77.90
2019-05-02T06:59:18.606Z,74.40
2019-05-02T07:01:22.942Z,80.50
2019-05-02T07:02:22.283Z,76.60
2019-05-02T07:04:26.942Z,70.40
2019-05-02T07:05:27.424Z,70.10
2019-05-02T07:07:36.899Z,68.70
2019-05-02T07:08:32.297Z,68.40
2019-05-02T07:10:44.403Z,65.40
2019-05-02T07:11:39.044Z,68.40
2019-05-02T07:13:43.692Z,68.60
2019-05-02T07:14:41.919Z,69.80
2019-05-02T07:16:49.630Z,71.30
2019-05-02T07:17:46.838Z,66.60
2019-05-02T07:19:51.494Z,66.30
2019-05-02T07:20:51.732Z,65.70
2019-05-02T07:22:56.407Z,63.20
2019-05-02T07:23:56.647Z,68.50
2019-05-02T07:26:00.830Z,64.60
2019-05-02T07:27:02.536Z,65.80
2019-05-02T07:29:05.232Z,65.90
2019-05-02T07:30:05.474Z,65.80
2019-05-02T07:31:59.092Z,67.30
2019-05-02T07:33:01.104Z,70.10
2019-05-02T07:35:03.997Z,68.00
2019-05-02T07:36:04.235Z,63.80
2019-05-02T07:38:08.916Z,67.30
2019-05-02T07:39:09.157Z,67.30
2019-05-02T07:41:13.843Z,64.50
2019-05-02T07:42:14.082Z,65.20
2019-05-02T07:44:18.745Z,63.30
2019-05-02T07:45:18.985Z,64.40
2019-05-02T07:47:23.666Z,62.00
2019-05-02T07:48:23.908Z,65.90
2019-05-02T07:50:28.588Z,64.50
2019-05-02T07:51:28.834Z,62.30
2019-05-02T07:53:33.009Z,61.30
2019-05-02T07:54:33.251Z,63.20
2019-05-02T07:56:37.945Z,59.50
2019-05-02T07:57:38.186Z,57.60
2019-05-02T07:59:42.845Z,56.90
2019-05-02T08:00:43.089Z,57.80
2019-05-02T08:02:47.279Z,57.60
2019-05-02T08:03:47.523Z,57.60
2019-05-02T08:05:54.354Z,58.50
2019-05-02T08:06:51.957Z,58.40
2019-05-02T08:08:56.134Z,55.30
2019-05-02T08:09:56.379Z,54.10
2019-05-02T08:11:49.525Z,54.40
2019-05-02T08:12:49.778Z,56.30
2019-05-02T08:14:53.923Z,54.70
2019-05-02T08:15:54.167Z,55.50
2019-05-02T08:17:58.849Z,53.40
2019-05-02T08:19:01.286Z,51.20
2019-05-02T08:21:03.292Z,53.40
2019-05-02T08:22:04.171Z,52.90
2019-05-02T08:24:08.209Z,53.30
2019-05-02T08:25:10.412Z,53.00
2019-05-02T08:27:12.673Z,51.60
2019-05-02T08:28:15.842Z,50.90
2019-05-02T08:30:17.085Z,50.80
2019-05-02T08:31:19.031Z,51.30
2019-05-02T08:33:22.027Z,51.40
2019-05-02T08:34:22.283Z,49.60
2019-05-02T08:36:26.470Z,49.80
2019-05-02T08:37:26.729Z,48.70
2019-05-02T08:39:33.733Z,48.10
2019-05-02T08:40:31.137Z,49.00
2019-05-02T08:42:35.331Z,48.90
2019-05-02T08:43:35.581Z,48.40
2019-05-02T08:45:39.760Z,47.00
2019-05-02T08:46:40.008Z,49.10
2019-05-02T08:48:44.695Z,46.60
2019-05-02T08:49:49.278Z,46.00
2019-05-02T08:51:38.073Z,46.80
2019-05-02T08:52:42.217Z,47.80
2019-05-02T08:54:42.988Z,46.80
2019-05-02T08:55:45.342Z,46.60
2019-05-02T08:57:47.433Z,45.10
2019-05-02T08:58:49.824Z,47.00
2019-05-02T09:00:51.861Z,47.90
2019-05-02T09:01:52.107Z,48.80
2019-05-02T09:03:57.015Z,45.30
2019-05-02T09:04:58.812Z,49.50
2019-05-02T09:07:00.963Z,47.70
2019-05-02T09:08:01.021Z,48.50
2019-05-02T09:10:05.782Z,48.50
2019-05-02T09:11:05.453Z,48.60
2019-05-02T09:13:09.651Z,49.70
2019-05-02T09:14:09.899Z,47.90
2019-05-02T09:16:14.081Z,48.00
2019-05-02T09:17:16.540Z,47.50
2019-05-02T09:19:21.328Z,45.60
2019-05-02T09:20:20.956Z,48.60
2019-05-02T09:22:13.214Z,47.00
2019-05-02T09:23:12.442Z,46.30
2019-05-02T09:25:16.843Z,47.10
2019-05-02T09:26:17.093Z,46.70
2019-05-02T09:28:22.471Z,46.00
2019-05-02T09:29:22.218Z,44.40
2019-05-02T09:31:25.723Z,42.90
2019-05-02T09:32:26.624Z,43.80
2019-05-02T09:34:31.906Z,40.30
2019-05-02T09:35:30.422Z,42.50
2019-05-02T09:37:34.626Z,41.20
2019-05-02T09:38:34.874Z,39.90
2019-05-02T09:40:39.059Z,39.30
2019-05-02T09:41:39.308Z,40.40
2019-05-02T09:43:43.521Z,38.30
2019-05-02T09:44:47.952Z,38.20
2019-05-02T09:46:55.197Z,37.40
2019-05-02T09:48:01.321Z,37.50
2019-05-02T09:49:53.102Z,36.10
2019-05-02T09:50:52.887Z,36.60
2019-05-02T09:52:56.856Z,37.40
2019-05-02T09:54:01.917Z,37.40
2019-05-02T09:56:02.200Z,37.50
2019-05-02T09:57:02.806Z,37.20
2019-05-02T09:59:23.494Z,36.30
2019-05-02T10:00:05.992Z,36.70
2019-05-02T10:01:59.101Z,33.10
2019-05-02T10:02:59.359Z,32.50
2019-05-02T10:05:03.555Z,34.60
2019-05-02T10:06:03.803Z,33.90
2019-05-02T10:08:11.018Z,34.10
2019-05-02T10:09:08.265Z,34.10
2019-05-02T10:11:16.633Z,33.20
2019-05-02T10:12:12.707Z,34.70
2019-05-02T10:14:16.910Z,32.20
2019-05-02T10:15:17.186Z,34.50
2019-05-02T10:17:23.001Z,33.00
2019-05-02T10:18:28.277Z,31.70
2019-05-02T10:20:34.096Z,32.40
2019-05-02T10:21:26.046Z,31.00
2019-05-02T10:23:32.113Z,28.80
2019-05-02T10:24:32.214Z,28.70
2019-05-02T10:26:34.692Z,29.40
2019-05-02T10:27:38.415Z,28.40
2019-05-02T10:29:39.154Z,29.00
2019-05-02T10:30:39.402Z,28.50
2019-05-02T10:32:47.146Z,29.10
2019-05-02T10:33:43.839Z,28.80
2019-05-02T10:35:48.051Z,27.70
2019-05-02T10:36:51.930Z,28.20
2019-05-02T10:38:54.820Z,27.00
2019-05-02T10:39:55.747Z,26.40
2019-05-02T10:41:45.868Z,25.90
2019-05-02T10:42:46.119Z,25.90
2019-05-02T10:44:52.121Z,27.70
2019-05-02T10:45:52.923Z,26.80
2019-05-02T10:47:54.763Z,26.70
2019-05-02T10:48:55.016Z,26.70
2019-05-02T10:50:59.224Z,26.30
2019-05-02T10:51:59.470Z,25.00
2019-05-02T10:54:03.683Z,24.90
2019-05-02T10:55:03.925Z,23.50
2019-05-02T10:57:08.103Z,22.70
2019-05-02T10:58:08.354Z,22.30
2019-05-02T11:00:12.558Z,21.00
2019-05-02T11:01:12.808Z,21.00
2019-05-02T11:03:16.985Z,27.40
2019-05-02T11:04:17.232Z,26.50
2019-05-02T11:06:22.262Z,26.20
2019-05-02T11:07:26.051Z,25.80
2019-05-02T11:09:26.410Z,26.90
2019-05-02T11:10:26.129Z,26.50
2019-05-02T11:12:40.327Z,29.90
2019-05-02T11:13:32.185Z,26.90
2019-05-02T11:15:34.754Z,26.70
2019-05-02T11:16:35.001Z,27.50
2019-05-02T11:18:42.471Z,27.60
2019-05-02T11:19:39.424Z,27.10
2019-05-02T11:21:32.547Z,27.90
2019-05-02T11:22:32.791Z,28.10
2019-05-02T11:24:36.990Z,28.20
2019-05-02T11:25:37.238Z,26.40
2019-05-02T11:27:41.890Z,25.80
2019-05-02T11:28:41.668Z,25.70
2019-05-02T11:30:45.845Z,26.30
2019-05-02T11:31:46.090Z,26.30
2019-05-02T11:33:52.499Z,25.10
2019-05-02T11:34:52.363Z,24.90
2019-05-02T11:36:54.709Z,26.80
2019-05-02T11:37:54.954Z,27.90
2019-05-02T11:40:01.565Z,28.40
2019-05-02T11:40:59.390Z,28.40
2019-05-02T11:43:06.741Z,25.70
2019-05-02T11:44:03.803Z,24.20
2019-05-02T11:46:08.004Z,16.80
2019-05-02T11:47:08.249Z,17.20
2019-05-02T11:49:12.433Z,19.10
2019-05-02T11:50:12.666Z,21.80
2019-05-02T11:52:05.786Z,23.50
2019-05-02T11:53:09.249Z,22.40
2019-05-02T11:55:10.227Z,23.70
2019-05-02T11:56:11.648Z,22.70
2019-05-02T11:58:14.646Z,20.50
2019-05-02T11:59:15.070Z,20.30
2019-05-02T12:01:20.212Z,22.40
2019-05-02T12:02:19.337Z,21.30
2019-05-02T12:04:23.506Z,22.20
2019-05-02T12:05:26.637Z,23.40
2019-05-02T12:07:27.942Z,21.60
2019-05-02T12:08:28.192Z,20.10
2019-05-02T12:10:36.512Z,20.50
2019-05-02T12:11:32.639Z,20.80
2019-05-02T12:13:36.829Z,20.50
2019-05-02T12:14:37.114Z,18.80
2019-05-02T12:16:43.035Z,18.10
2019-05-02T12:17:41.953Z,19.10
2019-05-02T12:19:45.724Z,19.70
2019-05-02T12:20:45.969Z,20.10
2019-05-02T12:22:52.663Z,22.30
2019-05-02T12:23:52.558Z,20.70
2019-05-02T12:25:55.090Z,22.40
2019-05-02T12:26:55.336Z,22.50
2019-05-02T12:28:59.521Z,22.20
2019-05-02T12:29:59.772Z,23.60
2019-05-02T12:31:56.379Z,24.20
2019-05-02T12:32:53.204Z,25.10
2019-05-02T12:34:57.344Z,25.90
2019-05-02T12:35:57.590Z,26.30
2019-05-02T12:38:02.678Z,26.60
2019-05-02T12:39:02.582Z,25.70
2019-05-02T12:41:19.289Z,29.30
2019-05-02T12:42:06.708Z,31.10
2019-05-02T12:44:11.731Z,41.20
2019-05-02T12:45:12.295Z,29.70
2019-05-02T12:47:15.079Z,29.00
2019-05-02T12:48:15.326Z,32.40
2019-05-02T12:50:19.531Z,29.00
2019-05-02T12:51:19.778Z,32.30
2019-05-02T12:53:23.963Z,29.50
2019-05-02T12:54:24.203Z,29.70
2019-05-02T12:56:28.406Z,26.40
2019-05-02T12:57:28.655Z,25.50
2019-05-02T12:59:32.852Z,27.30
2019-05-02T13:00:33.100Z,27.40
2019-05-02T13:02:37.285Z,26.40
2019-05-02T13:03:37.540Z,25.90
2019-05-02T13:05:42.688Z,25.40
2019-05-02T13:06:42.471Z,25.90
2019-05-02T13:08:46.679Z,21.90
2019-05-02T13:09:46.929Z,22.00
2019-05-02T13:11:42.293Z,21.10
2019-05-02T13:12:41.847Z,21.30
2019-05-02T13:14:44.490Z,21.60
2019-05-02T13:15:44.739Z,22.70
2019-05-02T13:17:49.135Z,24.00
2019-05-02T13:18:49.170Z,23.20
2019-05-02T13:20:53.375Z,24.60
2019-05-02T13:21:58.234Z,24.90
2019-05-02T13:23:57.834Z,22.80
2019-05-02T13:24:58.081Z,21.00
2019-05-02T13:27:04.442Z,17.60
2019-05-02T13:28:03.010Z,16.60
2019-05-02T13:30:07.216Z,19.10
2019-05-02T13:31:07.465Z,22.20
2019-05-02T13:33:12.229Z,18.10
2019-05-02T13:34:14.743Z,17.50
2019-05-02T13:36:16.105Z,15.50
2019-05-02T13:37:16.355Z,15.10
2019-05-02T13:39:22.016Z,15.80
2019-05-02T13:40:22.464Z,16.50
2019-05-02T13:42:13.936Z,17.00
2019-05-02T13:43:14.192Z,16.90
2019-05-02T13:45:18.397Z,16.60
2019-05-02T13:46:18.645Z,16.50
2019-05-02T13:48:22.825Z,16.80
2019-05-02T13:49:23.075Z,16.70
2019-05-02T13:51:27.280Z,15.60
2019-05-02T13:52:27.526Z,16.50
2019-05-02T13:54:32.941Z,16.20
2019-05-02T13:55:31.966Z,16.40
2019-05-02T13:57:41.773Z,17.40
2019-05-02T13:58:36.415Z,17.30
2019-05-02T14:00:42.349Z,16.60
2019-05-02T14:01:42.372Z,17.40
2019-05-02T14:03:45.052Z,17.10
2019-05-02T14:04:45.302Z,16.20
2019-05-02T14:06:49.498Z,16.60
2019-05-02T14:07:53.990Z,16.30
2019-05-02T14:09:58.099Z,15.10
2019-05-02T14:10:55.187Z,15.90
2019-05-02T14:12:59.885Z,14.90
2019-05-02T14:14:01.851Z,13.70
2019-05-02T14:16:04.345Z,13.40
2019-05-02T14:17:04.592Z,14.50
2019-05-02T14:19:08.770Z,13.50
2019-05-02T14:20:11.608Z,13.40
2019-05-02T14:22:02.962Z,12.50
2019-05-02T14:23:02.440Z,12.60
2019-05-02T14:25:06.584Z,11.80
2019-05-02T14:26:06.831Z,11.60
2019-05-02T14:28:12.864Z,10.60
2019-05-02T14:29:12.595Z,10.80
2019-05-02T14:31:15.494Z,11.70
2019-05-02T14:32:23.359Z,11.40
2019-05-02T14:34:21.649Z,11.30
2019-05-02T14:35:23.995Z,11.90
2019-05-02T14:37:24.883Z,11.90
2019-05-02T14:38:25.131Z,12.30
2019-05-02T14:40:29.308Z,11.50
2019-05-02T14:41:35.979Z,12.20
2019-05-02T14:43:37.986Z,12.90
2019-05-02T14:45:01.329Z,11.40
2019-05-02T14:46:39.625Z,12.50
2019-05-02T14:47:38.442Z,13.10
2019-05-02T14:49:42.992Z,13.20
2019-05-02T14:50:45.694Z,13.70
2019-05-02T14:52:47.060Z,17.70
2019-05-02T14:53:47.308Z,12.50
2019-05-02T14:55:53.171Z,13.40
2019-05-02T14:56:52.309Z,12.40
2019-05-02T14:58:55.933Z,12.70
2019-05-02T14:59:59.677Z,12.40
2019-05-02T15:01:49.320Z,13.60
2019-05-02T15:02:51.458Z,14.10
2019-05-02T15:04:53.743Z,14.80
2019-05-02T15:05:54.002Z,15.10
2019-05-02T15:08:02.605Z,15.70
2019-05-02T15:08:58.435Z,15.10
2019-05-02T15:11:03.418Z,12.90
2019-05-02T15:12:08.231Z,13.30
2019-05-02T15:14:11.426Z,12.90
2019-05-02T15:15:07.312Z,14.10
2019-05-02T15:17:12.103Z,14.00
2019-05-02T15:18:15.926Z,13.10
2019-05-02T15:20:15.940Z,13.30
2019-05-02T15:21:16.442Z,13.90
2019-05-02T15:23:20.384Z,13.90
2019-05-02T15:24:22.945Z,13.70
2019-05-02T15:26:26.448Z,14.50
2019-05-02T15:27:25.133Z,13.80
2019-05-02T15:29:29.382Z,13.40
2019-05-02T15:30:29.620Z,13.50
2019-05-02T15:32:37.246Z,13.60
2019-05-02T15:33:34.074Z,13.60
2019-05-02T15:35:38.247Z,13.60
2019-05-02T15:36:42.259Z,13.20
2019-05-02T15:38:47.351Z,14.40
2019-05-02T15:41:39.827Z,13.40
2019-05-02T15:42:38.807Z,13.50
2019-05-02T15:44:42.994Z,14.50
2019-05-02T15:45:44.118Z,13.60
2019-05-02T15:47:47.435Z,14.00
2019-05-02T15:48:47.677Z,13.80
2019-05-02T15:50:54.585Z,13.40
2019-05-02T15:51:52.404Z,13.40
2019-05-02T15:54:05.004Z,13.40
2019-05-02T15:54:59.550Z,13.70
2019-05-02T15:57:03.188Z,13.30
2019-05-02T15:58:02.496Z,13.30
2019-05-02T16:00:05.123Z,11.90
2019-05-02T16:01:05.370Z,12.60
2019-05-02T16:03:09.566Z,11.80
2019-05-02T16:04:09.813Z,11.70
2019-05-02T16:06:16.385Z,11.90
2019-05-02T16:07:15.228Z,11.40
2019-05-02T16:09:19.417Z,12.70
2019-05-02T16:10:21.600Z,11.80
2019-05-02T16:12:12.754Z,12.90
2019-05-02T16:13:17.002Z,13.30
2019-05-02T16:15:24.825Z,12.70
2019-05-02T16:16:17.432Z,13.80
2019-05-02T16:18:21.660Z,12.90
2019-05-02T16:19:28.566Z,16.00
2019-05-02T16:21:29.056Z,35.90
2019-05-02T16:22:26.299Z,32.50
2019-05-02T16:24:32.148Z,18.10
2019-05-02T16:25:31.991Z,18.50
2019-05-02T16:27:34.895Z,17.30
2019-05-02T16:28:36.926Z,16.90
2019-05-02T16:30:44.166Z,13.00
2019-05-02T16:31:39.568Z,12.20
2019-05-02T16:33:43.764Z,13.70
2019-05-02T16:34:43.995Z,12.70
2019-05-02T16:36:48.186Z,13.40
2019-05-02T16:37:54.438Z,13.20
2019-05-02T16:39:52.623Z,12.90
2019-05-02T16:40:52.871Z,13.40
2019-05-02T16:42:57.035Z,13.30
2019-05-02T16:43:57.278Z,13.80
2019-05-02T16:46:01.788Z,13.00
2019-05-02T16:47:02.211Z,13.20
2019-05-02T16:49:08.790Z,13.00
2019-05-02T16:50:06.117Z,14.30
2019-05-02T16:52:05.021Z,13.30
2019-05-02T16:52:59.469Z,13.40
2019-05-02T16:55:03.661Z,12.10
2019-05-02T16:56:07.024Z,12.20
2019-05-02T16:58:08.072Z,11.50
2019-05-02T16:59:08.314Z,11.60
2019-05-02T17:01:14.885Z,11.20
2019-05-02T17:02:12.740Z,11.40
2019-05-02T17:04:16.911Z,10.20
2019-05-02T17:05:17.147Z,10.10
2019-05-02T17:07:22.110Z,11.10
2019-05-02T17:08:22.529Z,10.50
2019-05-02T17:10:25.768Z,11.60
2019-05-02T17:11:27.874Z,12.30
2019-05-02T17:13:34.204Z,12.20
2019-05-02T17:14:31.746Z,12.00
2019-05-02T17:16:34.613Z,19.40
2019-05-02T17:17:34.987Z,12.60
2019-05-02T17:19:39.024Z,13.10
2019-05-02T17:20:39.267Z,12.60
2019-05-02T17:22:44.477Z,13.20
2019-05-02T17:23:46.818Z,13.50
2019-05-02T17:25:47.901Z,13.20
2019-05-02T17:26:48.141Z,14.40
2019-05-02T17:28:52.336Z,15.20
2019-05-02T17:29:59.326Z,13.90
2019-05-02T17:31:49.916Z,12.80
2019-05-02T17:32:45.935Z,12.90
2019-05-02T17:34:50.104Z,13.50
2019-05-02T17:35:52.296Z,13.60
2019-05-02T17:37:55.035Z,13.30
2019-05-02T17:38:59.264Z,13.40
2019-05-02T17:41:04.915Z,12.90
2019-05-02T17:42:02.605Z,13.80
2019-05-02T17:44:04.886Z,12.60
2019-05-02T17:45:05.142Z,12.50
2019-05-02T17:47:09.689Z,11.80
2019-05-02T17:48:15.915Z,12.80
2019-05-02T17:50:18.038Z,12.20
2019-05-02T17:51:13.950Z,11.30
2019-05-02T17:53:18.124Z,11.60
2019-05-02T17:54:22.790Z,12.00
2019-05-02T17:56:23.275Z,12.00
2019-05-02T17:57:22.826Z,11.90
2019-05-02T17:59:28.354Z,11.10
2019-05-02T18:00:27.232Z,10.80
2019-05-02T18:02:31.747Z,11.40
2019-05-02T18:03:34.987Z,10.20
2019-05-02T18:05:35.891Z,10.30
2019-05-02T18:06:36.063Z,10.00
2019-05-02T18:08:41.725Z,10.70
2019-05-02T18:09:41.881Z,10.50
2019-05-02T18:11:36.569Z,10.50
2019-05-02T18:12:33.845Z,10.70
2019-05-02T18:14:37.999Z,10.70
2019-05-02T18:15:38.247Z,10.00
2019-05-02T18:17:42.797Z,10.10
2019-05-02T18:18:45.678Z,10.70
2019-05-02T18:20:46.813Z,9.40
2019-05-02T18:21:47.054Z,10.30
2019-05-02T18:23:52.039Z,10.60
2019-05-02T18:24:52.651Z,10.10
2019-05-02T18:26:55.673Z,9.60
2019-05-02T18:27:55.895Z,10.10
2019-05-02T18:30:02.121Z,10.30
2019-05-02T18:31:02.752Z,8.50
2019-05-02T18:33:07.189Z,8.80
2019-05-02T18:34:04.714Z,9.50
2019-05-02T18:36:08.873Z,8.80
2019-05-02T18:37:09.115Z,8.90
2019-05-02T18:39:13.293Z,8.80
2019-05-02T18:40:13.532Z,8.80
2019-05-02T18:42:06.619Z,9.10
2019-05-02T18:43:06.858Z,8.60
2019-05-02T18:45:12.660Z,8.60
2019-05-02T18:46:12.749Z,9.00
2019-05-02T18:48:15.461Z,8.90
2019-05-02T18:49:17.111Z,8.90
2019-05-02T18:51:21.747Z,8.90
2019-05-02T18:52:20.099Z,8.80
2019-05-02T18:54:24.282Z,9.10
2019-05-02T18:55:25.864Z,8.80
2019-05-02T18:57:29.631Z,9.60
2019-05-02T18:58:28.920Z,9.10
2019-05-02T19:00:37.622Z,9.50
2019-05-02T19:01:33.332Z,9.70
2019-05-02T19:03:37.515Z,10.00
2019-05-02T19:04:39.735Z,9.20
2019-05-02T19:06:42.098Z,8.50
2019-05-02T19:07:42.836Z,8.40
2019-05-02T19:09:51.059Z,8.50
2019-05-02T19:11:04.098Z,8.90
2019-05-02T19:12:50.865Z,9.20
2019-05-02T19:13:52.656Z,9.00
2019-05-02T19:15:55.295Z,9.10
2019-05-02T19:16:58.098Z,8.90
2019-05-02T19:19:01.578Z,9.70
2019-05-02T19:19:59.935Z,9.50
2019-05-02T19:21:53.017Z,8.60
2019-05-02T19:22:56.864Z,8.10
2019-05-02T19:24:57.431Z,8.90
2019-05-02T19:26:03.758Z,8.10
2019-05-02T19:28:02.842Z,8.50
2019-05-02T19:29:02.566Z,8.90
2019-05-02T19:31:07.073Z,9.00
2019-05-02T19:32:06.497Z,9.10
2019-05-02T19:34:11.957Z,9.90
2019-05-02T19:35:10.914Z,9.90
2019-05-02T19:37:15.134Z,9.60
2019-05-02T19:38:17.095Z,9.90
2019-05-02T19:40:20.088Z,10.30
2019-05-02T19:41:19.747Z,10.20
2019-05-02T19:43:23.903Z,10.50
2019-05-02T19:44:29.239Z,10.20